createdAt,value
2022-11-01T00:01:37.298Z,14.57
2022-11-01T00:04:05.459Z,14.79
2022-11-01T00:06:33.355Z,14.83
2022-11-01T00:09:01.113Z,14.69
2022-11-01T00:11:28.916Z,14.84
2022-11-01T00:13:56.651Z,14.98
2022-11-01T00:16:25.843Z,15.15
2022-11-01T00:18:53.524Z,14.73
2022-11-01T00:21:21.682Z,14.85
2022-11-01T00:23:49.593Z,14.49
2022-11-01T00:26:19.562Z,14.93
2022-11-01T00:28:47.886Z,14.81
2022-11-01T00:31:16.809Z,14.98
2022-11-01T00:33:46.067Z,14.94
2022-11-01T00:36:14.233Z,14.81
2022-11-01T00:38:42.307Z,14.79
2022-11-01T00:41:10.240Z,15.08
2022-11-01T00:43:38.219Z,15.19
2022-11-01T00:46:06.291Z,15.02
2022-11-01T00:48:33.967Z,15.14
2022-11-01T00:51:03.344Z,14.69
2022-11-01T00:53:31.194Z,14.83
2022-11-01T00:56:02.026Z,15.00
2022-11-01T00:58:29.997Z,14.97
2022-11-01T01:00:58.070Z,14.77
2022-11-01T01:03:26.032Z,14.96
2022-11-01T01:05:54.975Z,15.04
2022-11-01T01:08:25.028Z,15.09
2022-11-01T01:10:53.069Z,14.76
2022-11-01T01:13:21.712Z,14.94
2022-11-01T01:15:49.440Z,14.94
2022-11-01T01:18:17.437Z,14.85
2022-11-01T01:20:45.588Z,14.84
2022-11-01T01:23:13.385Z,14.74
2022-11-01T01:25:43.675Z,14.83
2022-11-01T01:28:11.467Z,14.83
2022-11-01T01:30:41.288Z,14.79
2022-11-01T01:33:09.397Z,14.81
2022-11-01T01:35:38.572Z,14.87
2022-11-01T01:38:06.372Z,14.62
2022-11-01T01:40:34.812Z,14.45
2022-11-01T01:43:04.237Z,14.73
2022-11-01T01:45:37.669Z,14.79
2022-11-01T01:48:10.743Z,14.65
2022-11-01T01:50:43.364Z,14.57
2022-11-01T01:53:16.861Z,14.52
2022-11-01T01:55:48.514Z,14.62
2022-11-01T01:58:20.851Z,14.69
2022-11-01T02:00:48.727Z,14.65
2022-11-01T02:03:17.044Z,14.65
2022-11-01T02:05:49.799Z,14.44
2022-11-01T02:08:26.567Z,14.30
2022-11-01T02:10:55.425Z,14.24
2022-11-01T02:13:24.867Z,14.15
2022-11-01T02:16:25.301Z,14.14
2022-11-01T02:19:04.334Z,13.89
2022-11-01T02:21:46.902Z,13.72
2022-11-01T02:24:50.859Z,14.14
2022-11-01T02:27:26.279Z,14.09
2022-11-01T02:30:07.771Z,13.51
2022-11-01T02:32:57.022Z,13.95
2022-11-01T02:35:33.354Z,14.03
2022-11-01T02:38:07.423Z,14.22
2022-11-01T02:40:44.011Z,14.49
2022-11-01T02:43:17.258Z,14.38
2022-11-01T02:45:49.482Z,14.43
2022-11-01T02:48:21.641Z,14.33
2022-11-01T02:50:53.369Z,14.41
2022-11-01T02:53:21.188Z,14.49
2022-11-01T02:55:48.922Z,14.64
2022-11-01T02:58:21.546Z,14.69
2022-11-01T03:00:49.903Z,14.43
2022-11-01T03:03:22.624Z,14.48
2022-11-01T03:05:59.813Z,14.41
2022-11-01T03:08:33.227Z,14.48
2022-11-01T03:11:05.215Z,14.55
2022-11-01T03:13:49.711Z,14.43
2022-11-01T03:16:24.156Z,14.26
2022-11-01T03:19:05.675Z,14.38
2022-11-01T03:21:39.376Z,14.44
2022-11-01T03:24:15.811Z,14.37
2022-11-01T03:26:46.987Z,14.16
2022-11-01T03:29:16.056Z,14.25
2022-11-01T03:31:45.269Z,13.83
2022-11-01T03:34:17.204Z,13.77
2022-11-01T03:36:52.099Z,13.49
2022-11-01T03:39:23.446Z,13.78
2022-11-01T03:41:55.731Z,14.02
2022-11-01T03:44:24.209Z,14.07
2022-11-01T03:46:52.012Z,14.13
2022-11-01T03:49:21.295Z,14.09
2022-11-01T03:51:49.455Z,14.05
2022-11-01T03:54:17.144Z,14.13
2022-11-01T03:56:44.860Z,14.20
2022-11-01T03:59:12.809Z,14.21
2022-11-01T04:01:40.723Z,14.40
2022-11-01T04:04:08.522Z,14.20
2022-11-01T04:06:37.636Z,14.34
2022-11-01T04:09:05.604Z,14.49
2022-11-01T04:11:33.356Z,14.45
2022-11-01T04:14:14.965Z,14.47
2022-11-01T04:16:59.986Z,14.30
2022-11-01T04:19:45.124Z,14.46
2022-11-01T04:22:14.241Z,14.38
2022-11-01T04:24:41.928Z,14.45
2022-11-01T04:27:09.768Z,14.41
2022-11-01T04:29:37.518Z,14.50
2022-11-01T04:32:05.412Z,14.47
2022-11-01T04:34:45.216Z,14.48
2022-11-01T04:37:14.338Z,14.41
2022-11-01T04:39:42.034Z,14.43
2022-11-01T04:42:09.828Z,14.39
2022-11-01T04:44:37.532Z,14.34
2022-11-01T04:47:05.315Z,14.30
2022-11-01T04:49:32.989Z,14.42
2022-11-01T04:52:00.730Z,14.26
2022-11-01T04:54:33.357Z,14.33
2022-11-01T04:57:01.741Z,14.29
2022-11-01T04:59:29.497Z,14.27
2022-11-01T05:01:57.265Z,14.27
2022-11-01T05:04:24.996Z,14.23
2022-11-01T05:06:52.731Z,14.20
2022-11-01T05:09:20.397Z,14.21
2022-11-01T05:11:49.495Z,14.10
2022-11-01T05:14:17.208Z,14.15
2022-11-01T05:16:44.942Z,14.18
2022-11-01T05:19:12.780Z,14.24
2022-11-01T05:21:40.552Z,14.19
2022-11-01T05:24:09.141Z,14.28
2022-11-01T05:26:36.821Z,13.98
2022-11-01T05:29:09.037Z,14.14
2022-11-01T05:31:46.252Z,14.07
2022-11-01T05:34:13.936Z,14.19
2022-11-01T05:36:41.676Z,14.20
2022-11-01T05:39:09.651Z,14.18
2022-11-01T05:41:37.467Z,14.24
2022-11-01T05:44:06.575Z,14.21
2022-11-01T05:46:34.355Z,14.08
2022-11-01T05:49:02.091Z,14.21
2022-11-01T05:51:29.767Z,14.26
2022-11-01T05:53:57.508Z,14.25
2022-11-01T05:56:25.259Z,14.40
2022-11-01T05:58:53.000Z,14.40
2022-11-01T06:01:22.113Z,14.31
2022-11-01T06:03:51.217Z,14.20
2022-11-01T06:06:18.938Z,14.46
2022-11-01T06:08:46.703Z,14.41
2022-11-01T06:11:14.432Z,14.44
2022-11-01T06:13:42.105Z,14.47
2022-11-01T06:16:10.103Z,14.41
2022-11-01T06:18:39.137Z,14.47
2022-11-01T06:21:07.475Z,14.42
2022-11-01T06:23:35.231Z,14.57
2022-11-01T06:26:03.904Z,14.48
2022-11-01T06:28:31.861Z,14.38
2022-11-01T06:31:02.252Z,14.23
2022-11-01T06:33:30.262Z,14.27
2022-11-01T06:35:59.407Z,14.13
2022-11-01T06:38:27.127Z,14.16
2022-11-01T06:40:54.813Z,14.03
2022-11-01T06:43:22.603Z,14.07
2022-11-01T06:45:50.369Z,13.87
2022-11-01T06:48:18.193Z,13.78
2022-11-01T06:50:45.961Z,13.91
2022-11-01T06:53:15.000Z,13.89
2022-11-01T06:55:42.719Z,14.03
2022-11-01T06:58:10.494Z,14.10
2022-11-01T07:00:38.279Z,14.14
2022-11-01T07:03:07.610Z,14.12
2022-11-01T07:05:37.583Z,14.19
2022-11-01T07:08:07.357Z,14.04
2022-11-01T07:10:37.420Z,14.25
2022-11-01T07:13:07.191Z,14.21
2022-11-01T07:15:35.700Z,14.25
2022-11-01T07:18:06.381Z,14.24
2022-11-01T07:20:41.082Z,14.31
2022-11-01T07:23:12.305Z,14.48
2022-11-01T07:25:41.475Z,14.35
2022-11-01T07:28:09.492Z,14.52
2022-11-01T07:30:37.524Z,14.55
2022-11-01T07:33:06.209Z,14.52
2022-11-01T07:35:34.985Z,14.66
2022-11-01T07:38:05.186Z,14.55
2022-11-01T07:40:36.821Z,14.66
2022-11-01T07:43:07.156Z,14.79
2022-11-01T07:45:36.580Z,14.78
2022-11-01T07:48:06.407Z,14.93
2022-11-01T07:50:35.256Z,14.90
2022-11-01T07:53:03.615Z,15.00
2022-11-01T07:55:31.833Z,15.01
2022-11-01T07:57:59.753Z,15.16
2022-11-01T08:00:29.735Z,15.21
2022-11-01T08:03:01.959Z,15.04
2022-11-01T08:05:30.221Z,15.00
2022-11-01T08:07:57.992Z,14.92
2022-11-01T08:10:26.159Z,15.17
2022-11-01T08:12:53.959Z,15.30
2022-11-01T08:15:21.611Z,15.20
2022-11-01T08:17:50.671Z,15.50
2022-11-01T08:20:18.491Z,15.51
2022-11-01T08:25:18.835Z,15.68
2022-11-01T08:27:47.160Z,15.80
2022-11-01T08:30:15.447Z,15.82
2022-11-01T08:32:43.127Z,15.94
2022-11-01T08:35:12.935Z,15.95
2022-11-01T08:37:49.553Z,16.33
2022-11-01T08:40:17.540Z,16.19
2022-11-01T08:42:45.931Z,16.27
2022-11-01T08:45:14.235Z,16.29
2022-11-01T08:47:42.095Z,16.34
2022-11-01T08:50:13.297Z,16.76
2022-11-01T08:52:41.080Z,16.77
2022-11-01T08:55:10.559Z,16.79
2022-11-01T08:57:38.369Z,16.94
2022-11-01T09:00:08.028Z,17.17
2022-11-01T09:02:36.540Z,17.16
2022-11-01T09:05:06.547Z,17.11
2022-11-01T09:07:36.485Z,17.33
2022-11-01T09:10:05.162Z,17.41
2022-11-01T09:12:32.939Z,17.42
2022-11-01T09:15:00.723Z,17.47
2022-11-01T09:17:28.488Z,17.34
2022-11-01T09:19:56.179Z,17.51
2022-11-01T09:22:24.405Z,17.45
2022-11-01T09:24:55.427Z,17.68
2022-11-01T09:27:23.148Z,17.70
2022-11-01T09:29:52.036Z,17.44
2022-11-01T09:32:20.316Z,17.88
2022-11-01T09:34:48.995Z,17.97
2022-11-01T09:37:16.904Z,17.90
2022-11-01T09:39:44.676Z,17.95
2022-11-01T09:42:23.894Z,17.65
2022-11-01T09:44:54.555Z,17.50
2022-11-01T09:47:24.403Z,17.86
2022-11-01T09:49:57.496Z,17.68
2022-11-01T09:52:26.650Z,17.73
2022-11-01T09:54:54.397Z,17.95
2022-11-01T09:57:32.378Z,17.95
2022-11-01T10:00:07.756Z,17.88
2022-11-01T10:03:01.580Z,18.18
2022-11-01T10:05:36.888Z,18.14
2022-11-01T10:08:15.089Z,18.52
2022-11-01T10:10:51.309Z,18.22
2022-11-01T10:13:32.301Z,18.53
2022-11-01T10:16:05.597Z,18.16
2022-11-01T10:18:33.855Z,17.98
2022-11-01T10:21:06.065Z,18.02
2022-11-01T10:23:49.395Z,17.67
2022-11-01T10:26:21.266Z,18.21
2022-11-01T10:28:57.680Z,18.26
2022-11-01T10:31:28.170Z,17.96
2022-11-01T10:34:01.689Z,18.01
2022-11-01T10:36:34.216Z,18.34
2022-11-01T10:42:03.746Z,17.90
2022-11-01T10:44:35.636Z,17.75
2022-11-01T10:47:08.208Z,18.16
2022-11-01T10:50:00.649Z,18.07
2022-11-01T10:52:32.407Z,18.64
2022-11-01T10:55:01.678Z,18.18
2022-11-01T10:57:35.921Z,18.10
2022-11-01T11:00:11.795Z,18.29
2022-11-01T11:02:42.753Z,18.87
2022-11-01T11:05:13.567Z,18.34
2022-11-01T11:07:42.361Z,18.76
2022-11-01T11:10:22.768Z,18.90
2022-11-01T11:12:54.897Z,18.97
2022-11-01T11:15:37.343Z,19.13
2022-11-01T11:18:14.961Z,18.64
2022-11-01T11:20:43.744Z,18.50
2022-11-01T11:23:12.918Z,18.80
2022-11-01T11:25:42.961Z,19.03
2022-11-01T11:28:23.049Z,19.01
2022-11-01T11:30:52.561Z,18.52
2022-11-01T11:33:20.983Z,19.08
2022-11-01T11:35:57.484Z,18.80
2022-11-01T11:38:42.492Z,18.87
2022-11-01T11:41:12.074Z,18.60
2022-11-01T11:43:41.765Z,18.67
2022-11-01T11:46:20.885Z,18.25
2022-11-01T11:48:50.072Z,18.69
2022-11-01T11:51:18.225Z,17.99
2022-11-01T11:54:02.286Z,18.16
2022-11-01T11:56:30.020Z,18.33
2022-11-01T11:59:05.951Z,18.52
2022-11-01T12:01:37.800Z,18.32
2022-11-01T12:04:09.450Z,18.12
2022-11-01T12:06:42.280Z,18.50
2022-11-01T12:09:35.720Z,18.37
2022-11-01T12:12:08.304Z,18.27
2022-11-01T12:14:38.617Z,18.40
2022-11-01T12:17:31.291Z,18.40
2022-11-01T12:20:17.836Z,18.49
2022-11-01T12:22:51.550Z,18.79
2022-11-01T12:25:23.341Z,18.32
2022-11-01T12:27:59.361Z,18.31
2022-11-01T12:30:30.917Z,19.00
2022-11-01T12:33:05.735Z,19.27
2022-11-01T12:35:37.726Z,19.95
2022-11-01T12:38:34.462Z,19.33
2022-11-01T12:41:12.115Z,19.11
2022-11-01T12:43:52.058Z,19.12
2022-11-01T12:46:26.185Z,19.07
2022-11-01T12:49:01.249Z,19.40
2022-11-01T12:51:33.795Z,19.88
2022-11-01T12:54:07.380Z,20.01
2022-11-01T12:56:35.144Z,20.26
2022-11-01T12:59:02.823Z,19.90
2022-11-01T13:01:39.957Z,19.71
2022-11-01T13:04:21.406Z,19.76
2022-11-01T13:07:09.940Z,19.90
2022-11-01T13:09:50.027Z,19.62
2022-11-01T13:12:24.933Z,19.52
2022-11-01T13:15:04.744Z,19.58
2022-11-01T13:17:39.712Z,19.83
2022-11-01T13:20:24.509Z,19.35
2022-11-01T13:23:01.860Z,19.08
2022-11-01T13:25:38.007Z,19.38
2022-11-01T13:28:17.169Z,19.28
2022-11-01T13:30:51.608Z,19.17
2022-11-01T13:33:25.746Z,18.68
2022-11-01T13:36:01.101Z,18.56
2022-11-01T13:38:36.414Z,18.57
2022-11-01T13:41:19.406Z,18.11
2022-11-01T13:43:51.553Z,17.88
2022-11-01T13:46:29.435Z,17.84
2022-11-01T13:49:41.456Z,17.43
2022-11-01T13:52:16.853Z,17.92
2022-11-01T13:54:52.002Z,17.80
2022-11-01T13:57:22.400Z,17.39
2022-11-01T13:59:55.656Z,17.91
2022-11-01T14:02:47.091Z,18.01
2022-11-01T14:05:15.911Z,17.83
2022-11-01T14:08:12.922Z,17.68
2022-11-01T14:10:48.681Z,16.75
2022-11-01T14:13:18.144Z,16.89
2022-11-01T14:16:19.739Z,16.84
2022-11-01T14:19:19.113Z,17.05
2022-11-01T14:21:50.422Z,17.27
2022-11-01T14:24:23.686Z,17.29
2022-11-01T14:27:07.818Z,17.14
2022-11-01T14:29:37.148Z,17.35
2022-11-01T14:32:05.472Z,17.35
2022-11-01T14:34:39.027Z,17.31
2022-11-01T14:37:23.632Z,17.13
2022-11-01T14:40:21.760Z,17.28
2022-11-01T14:42:51.732Z,16.88
2022-11-01T14:45:39.184Z,16.49
2022-11-01T14:48:16.350Z,16.83
2022-11-01T14:50:53.943Z,17.09
2022-11-01T14:53:27.821Z,17.12
2022-11-01T14:56:13.317Z,17.31
2022-11-01T14:58:41.361Z,17.24
2022-11-01T15:01:14.054Z,17.32
2022-11-01T15:03:46.297Z,17.12
2022-11-01T15:06:24.092Z,16.81
2022-11-01T15:08:52.103Z,16.98
2022-11-01T15:11:21.325Z,17.26
2022-11-01T15:13:49.721Z,17.20
2022-11-01T15:16:23.047Z,17.68
2022-11-01T15:18:55.659Z,17.69
2022-11-01T15:21:29.036Z,17.32
2022-11-01T15:24:00.100Z,17.25
2022-11-01T15:26:32.684Z,16.93
2022-11-01T15:29:02.896Z,17.45
2022-11-01T15:31:34.258Z,17.43
2022-11-01T15:34:03.856Z,17.35
2022-11-01T15:36:34.208Z,17.81
2022-11-01T15:39:04.261Z,17.38
2022-11-01T15:41:35.030Z,17.36
2022-11-01T15:44:05.164Z,17.18
2022-11-01T15:46:35.244Z,17.33
2022-11-01T15:49:08.261Z,17.20
2022-11-01T15:51:41.568Z,17.00
2022-11-01T15:54:16.279Z,17.17
2022-11-01T15:56:50.678Z,17.17
2022-11-01T15:59:26.612Z,17.00
2022-11-01T16:01:56.603Z,17.17
2022-11-01T16:04:28.429Z,17.01
2022-11-01T16:07:02.053Z,17.01
2022-11-01T16:09:37.365Z,17.02
2022-11-01T16:12:16.067Z,17.16
2022-11-01T16:14:44.000Z,16.30
2022-11-01T16:17:24.275Z,16.49
2022-11-01T16:19:52.695Z,16.82
2022-11-01T16:22:38.175Z,16.77
2022-11-01T16:25:16.456Z,16.90
2022-11-01T16:28:03.980Z,16.66
2022-11-01T16:30:46.562Z,16.50
2022-11-01T16:33:25.341Z,16.49
2022-11-01T16:35:55.240Z,16.28
2022-11-01T16:38:38.549Z,16.17
2022-11-01T16:41:13.079Z,16.42
2022-11-01T16:43:42.908Z,16.34
2022-11-01T16:46:10.951Z,16.53
2022-11-01T16:48:51.650Z,15.85
2022-11-01T16:51:19.818Z,16.19
2022-11-01T16:53:47.494Z,16.51
2022-11-01T16:59:16.064Z,16.74
2022-11-01T17:01:47.178Z,16.71
2022-11-01T17:04:16.135Z,16.92
2022-11-01T17:06:44.072Z,16.93
2022-11-01T17:09:13.848Z,16.76
2022-11-01T17:11:46.483Z,16.60
2022-11-01T17:14:19.544Z,16.86
2022-11-01T17:16:48.252Z,17.16
2022-11-01T17:19:21.511Z,17.14
2022-11-01T17:21:51.702Z,16.63
2022-11-01T17:24:22.380Z,16.72
2022-11-01T17:26:51.563Z,17.08
2022-11-01T17:29:20.945Z,17.01
2022-11-01T17:31:48.848Z,17.18
2022-11-01T17:34:16.539Z,16.79
2022-11-01T17:36:48.938Z,16.68
2022-11-01T17:39:17.049Z,16.98
2022-11-01T17:41:45.144Z,16.78
2022-11-01T17:44:13.138Z,16.88
2022-11-01T17:46:42.790Z,16.95
2022-11-01T17:49:14.447Z,16.84
2022-11-01T17:51:42.436Z,16.97
2022-11-01T17:54:10.779Z,16.90
2022-11-01T17:56:38.793Z,16.86
2022-11-01T17:59:08.571Z,16.77
2022-11-01T18:01:38.179Z,17.01
2022-11-01T18:04:08.059Z,16.81
2022-11-01T18:06:35.859Z,16.82
2022-11-01T18:09:05.512Z,16.87
2022-11-01T18:11:40.902Z,16.98
2022-11-01T18:14:15.965Z,17.04
2022-11-01T18:16:49.160Z,16.96
2022-11-01T18:19:39.215Z,17.16
2022-11-01T18:22:14.725Z,16.80
2022-11-01T18:24:49.435Z,16.61
2022-11-01T18:27:22.051Z,16.54
2022-11-01T18:29:51.175Z,16.62
2022-11-01T18:32:26.667Z,16.42
2022-11-01T18:35:01.049Z,16.42
2022-11-01T18:37:36.652Z,16.79
2022-11-01T18:40:14.380Z,16.32
2022-11-01T18:42:43.216Z,16.47
2022-11-01T18:45:19.310Z,16.71
2022-11-01T18:47:52.021Z,16.32
2022-11-01T18:50:26.018Z,16.36
2022-11-01T18:53:04.335Z,16.32
2022-11-01T18:55:33.576Z,15.98
2022-11-01T18:58:14.818Z,15.83
2022-11-01T19:00:42.987Z,15.27
2022-11-01T19:03:21.765Z,15.71
2022-11-01T19:05:53.232Z,15.38
2022-11-01T19:08:25.814Z,15.53
2022-11-01T19:10:54.792Z,15.41
2022-11-01T19:13:31.037Z,15.53
2022-11-01T19:16:00.962Z,15.36
2022-11-01T19:18:29.824Z,15.34
2022-11-01T19:21:00.543Z,15.40
2022-11-01T19:23:35.619Z,15.33
2022-11-01T19:26:03.983Z,15.15
2022-11-01T19:28:34.983Z,15.31
2022-11-01T19:31:20.261Z,15.11
2022-11-01T19:33:55.268Z,15.19
2022-11-01T19:36:28.170Z,15.19
2022-11-01T19:38:55.970Z,15.04
2022-11-01T19:41:30.082Z,15.11
2022-11-01T19:43:58.952Z,15.05
2022-11-01T19:46:26.931Z,14.93
2022-11-01T19:48:54.642Z,14.93
2022-11-01T19:51:26.407Z,14.98
2022-11-01T19:53:54.427Z,14.99
2022-11-01T19:56:23.868Z,15.04
2022-11-01T19:58:54.399Z,15.07
2022-11-01T20:01:48.495Z,14.88
2022-11-01T20:04:27.676Z,14.80
2022-11-01T20:07:01.227Z,14.47
2022-11-01T20:09:30.241Z,14.80
2022-11-01T20:11:57.939Z,14.81
2022-11-01T20:14:26.019Z,14.87
2022-11-01T20:16:53.752Z,14.92
2022-11-01T20:19:21.799Z,14.79
2022-11-01T20:21:49.546Z,14.78
2022-11-01T20:24:18.648Z,14.62
2022-11-01T20:26:46.446Z,14.57
2022-11-01T20:29:14.480Z,14.78
2022-11-01T20:31:42.258Z,14.87
2022-11-01T20:34:10.117Z,14.81
2022-11-01T20:36:38.586Z,14.96
2022-11-01T20:39:09.082Z,14.81
2022-11-01T20:41:41.223Z,14.52
2022-11-01T20:44:08.904Z,14.60
2022-11-01T20:46:36.647Z,14.49
2022-11-01T20:49:04.369Z,14.93
2022-11-01T20:51:32.156Z,15.00
2022-11-01T20:54:00.159Z,14.78
2022-11-01T20:56:28.056Z,14.52
2022-11-01T20:58:57.212Z,14.32
2022-11-01T21:01:25.390Z,14.38
2022-11-01T21:03:53.763Z,14.57
2022-11-01T21:06:23.368Z,14.87
2022-11-01T21:08:51.025Z,14.59
2022-11-01T21:11:23.465Z,14.56
2022-11-01T21:13:52.339Z,14.89
2022-11-01T21:16:29.033Z,14.90
2022-11-01T21:19:02.077Z,14.89
2022-11-01T21:21:46.231Z,14.87
2022-11-01T21:24:33.386Z,14.63
2022-11-01T21:27:09.527Z,14.82
2022-11-01T21:29:39.650Z,14.81
2022-11-01T21:32:27.017Z,14.83
2022-11-01T21:34:55.037Z,14.74
2022-11-01T21:37:23.535Z,14.74
2022-11-01T21:40:00.150Z,14.68
2022-11-01T21:42:33.644Z,14.88
2022-11-01T21:45:01.540Z,14.95
2022-11-01T21:47:31.708Z,14.96
2022-11-01T21:49:59.440Z,14.91
2022-11-01T21:52:27.133Z,14.64
2022-11-01T21:54:54.868Z,14.77
2022-11-01T21:57:22.596Z,14.77
2022-11-01T21:59:51.825Z,14.65
2022-11-01T22:02:19.635Z,14.84
2022-11-01T22:04:48.817Z,14.80
2022-11-01T22:07:16.634Z,14.98
2022-11-01T22:09:44.305Z,14.87
2022-11-01T22:12:12.153Z,14.98
2022-11-01T22:14:39.848Z,14.73
2022-11-01T22:17:07.659Z,14.72
2022-11-01T22:19:35.323Z,14.64
2022-11-01T22:22:04.389Z,14.57
2022-11-01T22:24:32.068Z,14.55
2022-11-01T22:26:59.780Z,14.28
2022-11-01T22:29:27.475Z,14.64
2022-11-01T22:31:55.224Z,14.48
2022-11-01T22:34:22.943Z,14.43
2022-11-01T22:36:50.716Z,14.60
2022-11-01T22:39:21.980Z,14.73
2022-11-01T22:41:49.925Z,14.77
2022-11-01T22:44:19.846Z,14.80
2022-11-01T22:46:55.128Z,14.77
2022-11-01T22:49:29.916Z,14.87
2022-11-01T22:52:00.904Z,14.83
2022-11-01T22:54:38.175Z,14.84
2022-11-01T22:57:15.416Z,14.73
2022-11-01T22:59:46.937Z,14.87
2022-11-01T23:02:26.855Z,14.72
2022-11-01T23:05:03.617Z,14.59
2022-11-01T23:07:35.018Z,14.42
2022-11-01T23:10:07.315Z,14.34
2022-11-01T23:12:54.762Z,14.28
2022-11-01T23:15:29.688Z,14.16
2022-11-01T23:18:03.104Z,14.31
2022-11-01T23:20:30.818Z,14.51
2022-11-01T23:23:00.158Z,14.45
2022-11-01T23:25:30.244Z,14.46
2022-11-01T23:27:57.943Z,14.54
2022-11-01T23:30:26.252Z,14.58
2022-11-01T23:32:54.240Z,14.56
2022-11-01T23:35:23.138Z,14.47
2022-11-01T23:37:52.675Z,14.39
2022-11-01T23:40:22.414Z,14.36
2022-11-01T23:42:51.824Z,14.53
2022-11-01T23:45:29.000Z,14.61
2022-11-01T23:47:57.243Z,14.52
2022-11-01T23:50:30.292Z,14.61
2022-11-01T23:53:00.315Z,14.71
2022-11-01T23:55:30.544Z,14.63
2022-11-01T23:58:02.976Z,14.64
